| time (UTC) | temp F | wind direction | speed knots | gust knots | rain 1hr in | rain 24hr in | rain mn in | humidity % | barometer mb |
| 20260507105804 | 59 | 230 | 8.7 | 0.0 | 0.00 | 0.00 | 0.00 | 58 | 1012.0 |
| 20260507102804 | 57 | 240 | 10.4 | 0.0 | 0.00 | 0.00 | 0.00 | 62 | 1012.0 |
| 20260507095804 | 55 | 230 | 11.3 | 0.0 | 0.00 | 0.00 | 0.00 | 71 | 1012.0 |
| 20260507092804 | 55 | 240 | 7.8 | 0.0 | 0.00 | 0.00 | 0.00 | 66 | 1012.0 |
| 20260507085810 | 55 | 230 | 11.3 | 0.0 | 0.00 | 0.00 | 0.00 | 66 | 1012.0 |
| 20260507082805 | 55 | 230 | 12.2 | 0.0 | 0.00 | 0.00 | 0.00 | 66 | 1012.0 |
| 20260507075804 | 57 | 220 | 12.2 | 0.0 | 0.00 | 0.00 | 0.00 | 67 | 1011.0 |
| 20260507072804 | 54 | 230 | 11.3 | 0.0 | 0.00 | 0.00 | 0.00 | 76 | 1011.0 |
| 20260507065804 | 54 | 230 | 12.2 | 0.0 | 0.00 | 0.00 | 0.00 | 76 | 1011.0 |
| 20260507062804 | 54 | 230 | 10.4 | 0.0 | 0.00 | 0.00 | 0.00 | 81 | 1011.0 |
| 20260507055805 | 52 | 220 | 11.3 | 0.0 | 0.00 | 0.00 | 0.00 | 87 | 1010.0 |
| 20260507052805 | 52 | 230 | 6.1 | 0.0 | 0.00 | 0.00 | 0.00 | 93 | 1010.0 |
| 20260507045903 | 52 | 220 | 7.0 | 0.0 | 0.00 | 0.00 | 0.00 | 93 | 1010.0 |
| 20260507044017 | 52 | 230 | 7.0 | 0.0 | 0.00 | 0.00 | 0.00 | 93 | 1010.0 |
| 20260507042804 | 52 | 230 | 5.2 | 0.0 | 0.00 | 0.00 | 0.00 | 100 | 1009.0 |
| 20260507042604 | 52 | 230 | 5.2 | 0.0 | 0.00 | 0.00 | 0.00 | 100 | 1009.0 |
| 20260507035804 | 52 | 230 | 6.1 | 0.0 | 0.00 | 0.00 | 0.00 | 93 | 1009.0 |
| 20260507032804 | 52 | 250 | 4.3 | 0.0 | 0.00 | 0.00 | 0.00 | 93 | 1009.0 |
| 20260507025903 | 52 | 230 | 7.0 | 0.0 | 0.00 | 0.00 | 0.00 | 100 | 1009.0 |
| 20260507022803 | 52 | 220 | 5.2 | 0.0 | 0.00 | 0.00 | 0.00 | 93 | 1009.0 |
| 20260507015812 | 52 | 210 | 5.2 | 0.0 | 0.00 | 0.00 | 0.00 | 100 | 1009.0 |
| 20260507012804 | 52 | 230 | 5.2 | 0.0 | 0.00 | 0.00 | 0.00 | 93 | 1008.0 |
| 20260507005804 | 52 | 260 | 4.3 | 0.0 | 0.00 | 0.00 | 0.00 | 93 | 1008.0 |
| 20260507002803 | 52 | 260 | 2.6 | 0.0 | 0.00 | 0.00 | 0.00 | 100 | 1008.0 |
| 20260506235804 | 52 | 230 | 6.1 | 0.0 | 0.00 | 0.00 | 0.00 | 93 | 1008.0 |
| 20260506232803 | 54 | 230 | 7.0 | 0.0 | 0.00 | 0.00 | 0.00 | 93 | 1008.0 |
| 20260506225804 | 54 | 220 | 2.6 | 0.0 | 0.00 | 0.00 | 0.00 | 100 | 1008.0 |
| 20260506222804 | 54 | 0 | 1.7 | 0.0 | 0.00 | 0.00 | 0.00 | 100 | 1008.0 |
| 20260506215804 | 54 | 0 | 0.9 | 0.0 | 0.00 | 0.00 | 0.00 | 100 | 1008.0 |
| 20260506212803 | 54 | 260 | 4.3 | 0.0 | 0.00 | 0.00 | 0.00 | 100 | 1007.0 |
| 20260506205804 | 54 | 0 | 1.7 | 0.0 | 0.00 | 0.00 | 0.00 | 100 | 1007.0 |
| 20260506202904 | 54 | 350 | 4.3 | 0.0 | 0.00 | 0.00 | 0.00 | 100 | 1007.0 |
| 20260506195805 | 55 | 310 | 4.3 | 0.0 | 0.00 | 0.00 | 0.00 | 100 | 1007.0 |
| 20260506194704 | 55 | 320 | 2.6 | 0.0 | 0.00 | 0.00 | 0.00 | 100 | 1006.0 |
| 20260506193239 | 55 | 260 | 7.8 | 0.0 | 0.00 | 0.00 | 0.00 | 100 | 1006.0 |
| 20260506192804 | 61 | 230 | 10.4 | 0.0 | 0.00 | 0.00 | 0.00 | 72 | 1006.0 |
| 20260506192319 | 61 | 230 | 10.4 | 0.0 | 0.00 | 0.00 | 0.00 | 72 | 1006.0 |
| 20260506191808 | 61 | 90 | 4.3 | 0.0 | 0.00 | 0.00 | 0.00 | 67 | 1006.0 |
| 20260506185804 | 61 | 0 | 1.7 | 0.0 | 0.00 | 0.00 | 0.00 | 67 | 1005.0 |
| 20260506182804 | 61 | 0 | 1.7 | 0.0 | 0.00 | 0.00 | 0.00 | 67 | 1005.0 |
| 20260506175804 | 63 | 350 | 2.6 | 0.0 | 0.00 | 0.00 | 0.00 | 63 | 1004.0 |
| 20260506172803 | 64 | 340 | 5.2 | 0.0 | 0.00 | 0.00 | 0.00 | 63 | 1004.0 |
| 20260506165903 | 66 | 0 | 2.6 | 0.0 | 0.00 | 0.00 | 0.00 | 55 | 1004.0 |
| 20260506162804 | 66 | 60 | 6.1 | 0.0 | 0.00 | 0.00 | 0.00 | 52 | 1004.0 |
| 20260506155805 | 66 | 70 | 6.1 | 0.0 | 0.00 | 0.00 | 0.00 | 55 | 1004.0 |
| 20260506152804 | 68 | 80 | 7.0 | 0.0 | 0.00 | 0.00 | 0.00 | 56 | 1004.0 |
| 20260506145805 | 66 | 90 | 7.8 | 0.0 | 0.00 | 0.00 | 0.00 | 55 | 1005.0 |
| 20260506142803 | 68 | 90 | 5.2 | 0.0 | 0.00 | 0.00 | 0.00 | 52 | 1005.0 |
| 20260506135804 | 68 | 0 | 5.2 | 0.0 | 0.00 | 0.00 | 0.00 | 49 | 1005.0 |
| 20260506132804 | 70 | 30 | 4.3 | 0.0 | 0.00 | 0.00 | 0.00 | 46 | 1005.0 |
| 20260506125805 | 68 | 360 | 4.3 | 0.0 | 0.00 | 0.00 | 0.00 | 49 | 1005.0 |
| 20260506122804 | 66 | 0 | 4.3 | 0.0 | 0.00 | 0.00 | 0.00 | 52 | 1006.0 |
| 20260506115804 | 66 | 290 | 4.3 | 0.0 | 0.00 | 0.00 | 0.00 | 52 | 1006.0 |
| 20260506112804 | 66 | 0 | 4.3 | 0.0 | 0.00 | 0.00 | 0.00 | 55 | 1006.0 |